sensor_id;sensor_type;location;lat;lon;timestamp;pressure;altitude;pressure_sealevel;temperature;humidity
11041;BME280;5573;49.592;8.662;2023-05-03T00:01:31;100832.31;;;6.78;80.09
11041;BME280;5573;49.592;8.662;2023-05-03T00:04:00;100834.47;;;6.75;80.45
11041;BME280;5573;49.592;8.662;2023-05-03T00:06:27;100837.78;;;6.69;80.17
11041;BME280;5573;49.592;8.662;2023-05-03T00:08:57;100846.06;;;6.82;79.05
11041;BME280;5573;49.592;8.662;2023-05-03T00:11:24;100826.16;;;6.62;79.21
11041;BME280;5573;49.592;8.662;2023-05-03T00:13:52;100845.81;;;6.51;79.35
11041;BME280;5573;49.592;8.662;2023-05-03T00:16:20;100845.97;;;6.50;79.25
11041;BME280;5573;49.592;8.662;2023-05-03T00:18:49;100842.81;;;6.46;80.52
11041;BME280;5573;49.592;8.662;2023-05-03T00:21:16;100841.50;;;6.50;80.71
11041;BME280;5573;49.592;8.662;2023-05-03T00:23:44;100837.47;;;6.38;80.77
11041;BME280;5573;49.592;8.662;2023-05-03T00:26:13;100834.69;;;6.40;80.48
11041;BME280;5573;49.592;8.662;2023-05-03T00:28:42;100826.88;;;6.38;80.84
11041;BME280;5573;49.592;8.662;2023-05-03T00:31:10;100819.59;;;6.32;81.39
11041;BME280;5573;49.592;8.662;2023-05-03T00:33:38;100799.31;;;6.15;81.55
11041;BME280;5573;49.592;8.662;2023-05-03T00:36:07;100824.94;;;6.40;80.65
11041;BME280;5573;49.592;8.662;2023-05-03T00:38:35;100826.53;;;6.25;80.31
11041;BME280;5573;49.592;8.662;2023-05-03T00:41:04;100822.44;;;6.39;80.67
11041;BME280;5573;49.592;8.662;2023-05-03T00:43:34;100831.22;;;6.39;79.82
11041;BME280;5573;49.592;8.662;2023-05-03T00:46:04;100814.81;;;6.36;80.13
11041;BME280;5573;49.592;8.662;2023-05-03T00:48:43;100810.97;;;6.30;79.36
11041;BME280;5573;49.592;8.662;2023-05-03T00:51:13;100818.59;;;6.33;79.89
11041;BME280;5573;49.592;8.662;2023-05-03T00:53:41;100818.63;;;6.41;80.22
11041;BME280;5573;49.592;8.662;2023-05-03T00:56:10;100737.78;;;6.05;79.39
11041;BME280;5573;49.592;8.662;2023-05-03T00:58:39;100807.84;;;6.34;79.74
11041;BME280;5573;49.592;8.662;2023-05-03T01:01:07;100815.97;;;6.41;79.51
11041;BME280;5573;49.592;8.662;2023-05-03T01:03:36;100803.41;;;6.35;79.70
11041;BME280;5573;49.592;8.662;2023-05-03T01:06:12;100801.44;;;6.45;78.42
11041;BME280;5573;49.592;8.662;2023-05-03T01:08:48;100793.50;;;6.45;79.03
11041;BME280;5573;49.592;8.662;2023-05-03T01:11:22;100785.53;;;6.37;78.94
11041;BME280;5573;49.592;8.662;2023-05-03T01:13:55;100783.59;;;6.47;77.13
11041;BME280;5573;49.592;8.662;2023-05-03T01:16:30;100785.09;;;6.50;77.67
11041;BME280;5573;49.592;8.662;2023-05-03T01:19:04;100783.78;;;6.54;76.97
11041;BME280;5573;49.592;8.662;2023-05-03T01:21:35;100771.06;;;6.65;76.85
11041;BME280;5573;49.592;8.662;2023-05-03T01:24:07;100781.34;;;6.68;76.62
11041;BME280;5573;49.592;8.662;2023-05-03T01:26:39;100773.75;;;6.81;75.92
11041;BME280;5573;49.592;8.662;2023-05-03T01:29:07;100776.91;;;7.01;74.27
11041;BME280;5573;49.592;8.662;2023-05-03T01:31:38;100775.09;;;6.94;74.39
11041;BME280;5573;49.592;8.662;2023-05-03T01:34:19;100778.22;;;6.89;74.66
11041;BME280;5573;49.592;8.662;2023-05-03T01:36:48;100772.63;;;6.92;74.62
11041;BME280;5573;49.592;8.662;2023-05-03T01:39:20;100784.53;;;6.88;74.71
11041;BME280;5573;49.592;8.662;2023-05-03T01:41:51;100778.53;;;6.78;76.40
11041;BME280;5573;49.592;8.662;2023-05-03T01:44:21;100775.38;;;6.74;76.89
11041;BME280;5573;49.592;8.662;2023-05-03T01:46:49;100778.03;;;6.74;75.96
11041;BME280;5573;49.592;8.662;2023-05-03T01:49:17;100777.31;;;6.56;77.46
11041;BME280;5573;49.592;8.662;2023-05-03T01:51:44;100771.06;;;6.57;77.63
11041;BME280;5573;49.592;8.662;2023-05-03T01:54:12;100767.72;;;6.47;77.86
11041;BME280;5573;49.592;8.662;2023-05-03T01:56:40;100778.31;;;6.47;77.49
11041;BME280;5573;49.592;8.662;2023-05-03T01:59:09;100783.53;;;6.31;77.64
11041;BME280;5573;49.592;8.662;2023-05-03T02:01:37;100769.44;;;6.22;78.25
11041;BME280;5573;49.592;8.662;2023-05-03T02:04:06;100775.88;;;6.20;78.80
11041;BME280;5573;49.592;8.662;2023-05-03T02:06:34;100778.34;;;6.13;78.85
11041;BME280;5573;49.592;8.662;2023-05-03T02:09:02;100782.38;;;6.00;79.58
11041;BME280;5573;49.592;8.662;2023-05-03T02:11:30;100780.25;;;6.03;80.17
11041;BME280;5573;49.592;8.662;2023-05-03T02:13:58;100786.88;;;6.07;79.49
11041;BME280;5573;49.592;8.662;2023-05-03T02:16:27;100779.31;;;6.12;79.79
11041;BME280;5573;49.592;8.662;2023-05-03T02:18:56;100786.78;;;6.17;79.56
11041;BME280;5573;49.592;8.662;2023-05-03T02:21:28;100777.34;;;6.14;79.26
11041;BME280;5573;49.592;8.662;2023-05-03T02:23:58;100789.72;;;6.06;79.90
11041;BME280;5573;49.592;8.662;2023-05-03T02:26:27;100793.47;;;6.03;79.34
11041;BME280;5573;49.592;8.662;2023-05-03T02:28:55;100791.34;;;5.99;79.23
11041;BME280;5573;49.592;8.662;2023-05-03T02:31:25;100789.94;;;5.87;79.28
11041;BME280;5573;49.592;8.662;2023-05-03T02:33:56;100790.44;;;5.90;79.97
11041;BME280;5573;49.592;8.662;2023-05-03T02:36:24;100796.06;;;5.87;80.92
11041;BME280;5573;49.592;8.662;2023-05-03T02:38:53;100798.94;;;5.76;79.82
11041;BME280;5573;49.592;8.662;2023-05-03T02:41:21;100799.25;;;5.73;81.18
11041;BME280;5573;49.592;8.662;2023-05-03T02:43:49;100796.09;;;5.69;80.64
11041;BME280;5573;49.592;8.662;2023-05-03T02:46:17;100801.53;;;5.68;80.75
11041;BME280;5573;49.592;8.662;2023-05-03T02:48:45;100795.72;;;5.64;81.09
11041;BME280;5573;49.592;8.662;2023-05-03T02:51:14;100799.13;;;5.57;81.07
11041;BME280;5573;49.592;8.662;2023-05-03T02:53:42;100802.75;;;5.56;81.21
11041;BME280;5573;49.592;8.662;2023-05-03T02:56:09;100801.47;;;5.60;81.61
11041;BME280;5573;49.592;8.662;2023-05-03T02:58:37;100793.91;;;5.47;81.79
11041;BME280;5573;49.592;8.662;2023-05-03T03:01:06;100794.16;;;5.36;81.87
11041;BME280;5573;49.592;8.662;2023-05-03T03:03:33;100801.19;;;5.45;81.55
11041;BME280;5573;49.592;8.662;2023-05-03T03:06:01;100805.22;;;5.31;82.38
11041;BME280;5573;49.592;8.662;2023-05-03T03:08:31;100807.03;;;5.31;81.75
11041;BME280;5573;49.592;8.662;2023-05-03T03:11:01;100807.69;;;5.33;82.00
11041;BME280;5573;49.592;8.662;2023-05-03T03:13:31;100807.47;;;5.26;82.16
11041;BME280;5573;49.592;8.662;2023-05-03T03:16:00;100805.88;;;5.33;81.53
11041;BME280;5573;49.592;8.662;2023-05-03T03:18:29;100807.03;;;5.31;82.10
11041;BME280;5573;49.592;8.662;2023-05-03T03:20:57;100810.56;;;5.22;81.54
11041;BME280;5573;49.592;8.662;2023-05-03T03:23:25;100804.09;;;5.16;82.39
11041;BME280;5573;49.592;8.662;2023-05-03T03:25:54;100774.97;;;4.91;82.37
11041;BME280;5573;49.592;8.662;2023-05-03T03:28:23;100805.50;;;5.11;82.46
11041;BME280;5573;49.592;8.662;2023-05-03T03:30:52;100794.66;;;4.96;82.90
11041;BME280;5573;49.592;8.662;2023-05-03T03:33:23;100792.22;;;4.85;82.96
11041;BME280;5573;49.592;8.662;2023-05-03T03:35:57;100799.78;;;4.80;83.33
11041;BME280;5573;49.592;8.662;2023-05-03T03:38:31;100790.50;;;4.94;82.86
11041;BME280;5573;49.592;8.662;2023-05-03T03:41:04;100794.03;;;4.84;83.08
11041;BME280;5573;49.592;8.662;2023-05-03T03:43:33;100799.94;;;4.96;82.22
11041;BME280;5573;49.592;8.662;2023-05-03T03:46:06;100800.69;;;5.06;81.50
11041;BME280;5573;49.592;8.662;2023-05-03T03:48:34;100793.97;;;5.12;81.96
11041;BME280;5573;49.592;8.662;2023-05-03T03:51:02;100795.94;;;5.10;80.89
11041;BME280;5573;49.592;8.662;2023-05-03T03:53:36;100793.81;;;4.96;81.99
11041;BME280;5573;49.592;8.662;2023-05-03T03:56:06;100795.56;;;5.05;82.10
11041;BME280;5573;49.592;8.662;2023-05-03T03:58:34;100799.78;;;4.98;83.03
11041;BME280;5573;49.592;8.662;2023-05-03T04:01:04;100791.66;;;4.91;82.27
11041;BME280;5573;49.592;8.662;2023-05-03T04:03:32;100801.38;;;4.91;82.26
11041;BME280;5573;49.592;8.662;2023-05-03T04:06:00;100793.06;;;4.85;81.99
11041;BME280;5573;49.592;8.662;2023-05-03T04:08:29;100805.59;;;4.83;82.83
11041;BME280;5573;49.592;8.662;2023-05-03T04:10:57;100797.47;;;4.95;82.63
11041;BME280;5573;49.592;8.662;2023-05-03T04:13:26;100797.59;;;4.93;83.24
11041;BME280;5573;49.592;8.662;2023-05-03T04:15:55;100792.19;;;4.95;82.18
11041;BME280;5573;49.592;8.662;2023-05-03T04:18:24;100797.16;;;4.98;82.51
11041;BME280;5573;49.592;8.662;2023-05-03T04:20:54;100794.06;;;5.02;83.10
11041;BME280;5573;49.592;8.662;2023-05-03T04:23:22;100798.88;;;5.07;83.00
11041;BME280;5573;49.592;8.662;2023-05-03T04:25:50;100803.19;;;5.08;83.20
11041;BME280;5573;49.592;8.662;2023-05-03T04:28:19;100804.31;;;5.05;83.64
11041;BME280;5573;49.592;8.662;2023-05-03T04:30:50;100794.06;;;5.02;83.24
11041;BME280;5573;49.592;8.662;2023-05-03T04:33:23;100797.28;;;5.14;83.33
11041;BME280;5573;49.592;8.662;2023-05-03T04:35:53;100796.00;;;5.18;82.15
11041;BME280;5573;49.592;8.662;2023-05-03T04:38:20;100796.06;;;5.26;81.75
11041;BME280;5573;49.592;8.662;2023-05-03T04:40:49;100804.38;;;5.31;81.73
11041;BME280;5573;49.592;8.662;2023-05-03T04:43:17;100810.94;;;5.27;81.67
11041;BME280;5573;49.592;8.662;2023-05-03T04:45:46;100810.94;;;5.27;82.87
11041;BME280;5573;49.592;8.662;2023-05-03T04:48:19;100813.88;;;5.42;81.20
11041;BME280;5573;49.592;8.662;2023-05-03T04:50:47;100804.22;;;5.50;81.25
11041;BME280;5573;49.592;8.662;2023-05-03T04:53:17;100817.84;;;5.63;80.79
11041;BME280;5573;49.592;8.662;2023-05-03T04:55:52;100812.19;;;5.58;80.29
11041;BME280;5573;49.592;8.662;2023-05-03T04:58:20;100811.88;;;5.61;79.61
11041;BME280;5573;49.592;8.662;2023-05-03T05:00:48;100813.53;;;5.62;80.38
11041;BME280;5573;49.592;8.662;2023-05-03T05:03:25;100817.56;;;5.74;79.33
11041;BME280;5573;49.592;8.662;2023-05-03T05:05:53;100811.78;;;5.71;80.45
11041;BME280;5573;49.592;8.662;2023-05-03T05:08:20;100821.34;;;5.90;79.62
11041;BME280;5573;49.592;8.662;2023-05-03T05:10:53;100816.88;;;6.16;76.62
11041;BME280;5573;49.592;8.662;2023-05-03T05:13:25;100812.09;;;6.19;78.08
11041;BME280;5573;49.592;8.662;2023-05-03T05:15:53;100807.25;;;6.15;75.89
11041;BME280;5573;49.592;8.662;2023-05-03T05:18:21;100820.16;;;6.18;75.69
11041;BME280;5573;49.592;8.662;2023-05-03T05:20:52;100828.78;;;6.20;75.44
11041;BME280;5573;49.592;8.662;2023-05-03T05:23:21;100823.88;;;6.33;74.12
11041;BME280;5573;49.592;8.662;2023-05-03T05:25:50;100828.16;;;6.26;76.01
11041;BME280;5573;49.592;8.662;2023-05-03T05:28:20;100831.50;;;6.28;76.42
11041;BME280;5573;49.592;8.662;2023-05-03T05:30:48;100830.38;;;6.39;75.43
11041;BME280;5573;49.592;8.662;2023-05-03T05:33:16;100822.50;;;6.55;74.95
11041;BME280;5573;49.592;8.662;2023-05-03T05:35:47;100823.50;;;6.54;74.50
11041;BME280;5573;49.592;8.662;2023-05-03T05:38:19;100830.31;;;6.64;75.63
11041;BME280;5573;49.592;8.662;2023-05-03T05:40:49;100830.38;;;6.80;76.67
11041;BME280;5573;49.592;8.662;2023-05-03T05:43:18;100833.69;;;6.91;77.37
11041;BME280;5573;49.592;8.662;2023-05-03T05:45:45;100835.53;;;7.06;75.33
11041;BME280;5573;49.592;8.662;2023-05-03T05:48:14;100830.75;;;7.18;73.99
11041;BME280;5573;49.592;8.662;2023-05-03T05:50:43;100834.59;;;7.40;73.67
11041;BME280;5573;49.592;8.662;2023-05-03T05:53:13;100839.38;;;7.36;73.49
11041;BME280;5573;49.592;8.662;2023-05-03T05:55:49;100826.97;;;7.37;74.92
11041;BME280;5573;49.592;8.662;2023-05-03T05:58:17;100833.38;;;7.74;72.01
11041;BME280;5573;49.592;8.662;2023-05-03T06:00:49;100838.66;;;8.15;70.44
11041;BME280;5573;49.592;8.662;2023-05-03T06:03:17;100839.06;;;8.43;69.50
11041;BME280;5573;49.592;8.662;2023-05-03T06:05:48;100829.94;;;8.45;69.83
11041;BME280;5573;49.592;8.662;2023-05-03T06:08:16;100824.53;;;8.69;67.82
11041;BME280;5573;49.592;8.662;2023-05-03T06:10:44;100827.25;;;8.84;67.48
11041;BME280;5573;49.592;8.662;2023-05-03T06:13:13;100826.56;;;8.90;67.08
11041;BME280;5573;49.592;8.662;2023-05-03T06:15:41;100824.22;;;8.95;68.32
11041;BME280;5573;49.592;8.662;2023-05-03T06:18:09;100819.69;;;9.04;66.52
11041;BME280;5573;49.592;8.662;2023-05-03T06:20:37;100820.56;;;9.19;66.14
11041;BME280;5573;49.592;8.662;2023-05-03T06:23:05;100814.91;;;9.22;66.00
11041;BME280;5573;49.592;8.662;2023-05-03T06:25:35;100821.16;;;9.29;66.48
11041;BME280;5573;49.592;8.662;2023-05-03T06:28:03;100814.53;;;9.25;66.34
11041;BME280;5573;49.592;8.662;2023-05-03T06:30:35;100815.09;;;9.35;66.09
11041;BME280;5573;49.592;8.662;2023-05-03T06:33:11;100809.66;;;9.51;65.76
11041;BME280;5573;49.592;8.662;2023-05-03T06:35:41;100811.91;;;9.62;63.99
11041;BME280;5573;49.592;8.662;2023-05-03T06:38:09;100804.75;;;9.63;65.30
11041;BME280;5573;49.592;8.662;2023-05-03T06:40:37;100804.31;;;9.74;64.56
11041;BME280;5573;49.592;8.662;2023-05-03T06:43:06;100805.16;;;9.89;64.36
11041;BME280;5573;49.592;8.662;2023-05-03T06:45:42;100810.56;;;10.10;64.33
11041;BME280;5573;49.592;8.662;2023-05-03T06:48:10;100815.19;;;10.16;63.51
11041;BME280;5573;49.592;8.662;2023-05-03T06:50:38;100809.59;;;10.26;63.00
11041;BME280;5573;49.592;8.662;2023-05-03T06:53:07;100806.94;;;10.41;62.51
11041;BME280;5573;49.592;8.662;2023-05-03T06:55:35;100816.44;;;10.64;62.03
11041;BME280;5573;49.592;8.662;2023-05-03T06:58:04;100823.59;;;10.79;60.68
11041;BME280;5573;49.592;8.662;2023-05-03T07:00:35;100825.66;;;10.98;60.17
11041;BME280;5573;49.592;8.662;2023-05-03T07:03:06;100828.00;;;11.07;61.51
11041;BME280;5573;49.592;8.662;2023-05-03T07:05:33;100834.28;;;11.00;60.38
11041;BME280;5573;49.592;8.662;2023-05-03T07:08:02;100829.84;;;11.28;59.51
11041;BME280;5573;49.592;8.662;2023-05-03T07:10:52;100835.88;;;11.58;59.86
11041;BME280;5573;49.592;8.662;2023-05-03T07:13:20;100840.78;;;11.76;58.28
11041;BME280;5573;49.592;8.662;2023-05-03T07:15:48;100833.94;;;12.29;56.98
11041;BME280;5573;49.592;8.662;2023-05-03T07:18:18;100837.56;;;12.55;57.33
11041;BME280;5573;49.592;8.662;2023-05-03T07:20:45;100821.81;;;12.74;55.93
11041;BME280;5573;49.592;8.662;2023-05-03T07:23:14;100837.22;;;13.19;53.68
11041;BME280;5573;49.592;8.662;2023-05-03T07:25:42;100828.63;;;13.43;52.86
11041;BME280;5573;49.592;8.662;2023-05-03T07:28:11;100817.69;;;13.91;50.99
11041;BME280;5573;49.592;8.662;2023-05-03T07:30:39;100821.97;;;14.25;50.26
11041;BME280;5573;49.592;8.662;2023-05-03T07:33:07;100821.13;;;14.37;50.81
11041;BME280;5573;49.592;8.662;2023-05-03T07:35:36;100819.91;;;15.22;48.48
11041;BME280;5573;49.592;8.662;2023-05-03T07:38:04;100828.53;;;15.62;47.01
11041;BME280;5573;49.592;8.662;2023-05-03T07:40:32;100820.66;;;14.98;47.93
11041;BME280;5573;49.592;8.662;2023-05-03T07:43:00;100828.38;;;15.19;48.91
11041;BME280;5573;49.592;8.662;2023-05-03T07:45:29;100829.44;;;15.18;49.46
11041;BME280;5573;49.592;8.662;2023-05-03T07:47:57;100823.91;;;15.38;47.94
11041;BME280;5573;49.592;8.662;2023-05-03T07:50:25;100833.13;;;15.55;47.30
11041;BME280;5573;49.592;8.662;2023-05-03T07:52:54;100823.81;;;15.20;48.01
11041;BME280;5573;49.592;8.662;2023-05-03T07:55:22;100824.06;;;15.18;48.83
11041;BME280;5573;49.592;8.662;2023-05-03T07:57:50;100823.25;;;15.11;47.44
11041;BME280;5573;49.592;8.662;2023-05-03T08:00:24;100830.16;;;14.94;49.11
11041;BME280;5573;49.592;8.662;2023-05-03T08:02:51;100822.66;;;14.71;49.98
11041;BME280;5573;49.592;8.662;2023-05-03T08:05:20;100825.91;;;14.80;48.94
11041;BME280;5573;49.592;8.662;2023-05-03T08:07:50;100828.72;;;14.40;50.65
11041;BME280;5573;49.592;8.662;2023-05-03T08:10:19;100829.03;;;14.70;50.66
11041;BME280;5573;49.592;8.662;2023-05-03T08:12:50;100822.88;;;14.70;49.01
11041;BME280;5573;49.592;8.662;2023-05-03T08:15:18;100829.13;;;14.50;50.26
11041;BME280;5573;49.592;8.662;2023-05-03T08:17:46;100832.75;;;14.76;50.04
11041;BME280;5573;49.592;8.662;2023-05-03T08:20:14;100820.91;;;14.90;50.77
11041;BME280;5573;49.592;8.662;2023-05-03T08:22:42;100830.81;;;14.89;48.53
11041;BME280;5573;49.592;8.662;2023-05-03T08:25:11;100827.75;;;14.79;48.98
11041;BME280;5573;49.592;8.662;2023-05-03T08:27:40;100819.47;;;14.87;50.74
11041;BME280;5573;49.592;8.662;2023-05-03T08:30:08;100816.25;;;15.10;49.89
11041;BME280;5573;49.592;8.662;2023-05-03T08:32:36;100817.78;;;14.93;49.88
11041;BME280;5573;49.592;8.662;2023-05-03T08:35:04;100818.66;;;14.87;50.07
11041;BME280;5573;49.592;8.662;2023-05-03T08:37:37;100821.78;;;14.84;49.34
11041;BME280;5573;49.592;8.662;2023-05-03T08:40:06;100822.59;;;14.84;50.35
11041;BME280;5573;49.592;8.662;2023-05-03T08:42:39;100809.84;;;15.11;49.68
11041;BME280;5573;49.592;8.662;2023-05-03T08:45:10;100814.78;;;15.14;49.42
11041;BME280;5573;49.592;8.662;2023-05-03T08:47:38;100792.44;;;15.20;48.52
11041;BME280;5573;49.592;8.662;2023-05-03T08:50:08;100816.31;;;14.97;48.86
11041;BME280;5573;49.592;8.662;2023-05-03T08:52:38;100819.16;;;15.09;50.54
11041;BME280;5573;49.592;8.662;2023-05-03T08:55:07;100820.41;;;15.69;50.10
11041;BME280;5573;49.592;8.662;2023-05-03T08:57:36;100818.22;;;15.59;48.77
11041;BME280;5573;49.592;8.662;2023-05-03T09:00:06;100817.69;;;15.93;47.34
11041;BME280;5573;49.592;8.662;2023-05-03T09:02:36;100811.53;;;15.93;47.80
11041;BME280;5573;49.592;8.662;2023-05-03T09:05:33;100813.03;;;16.25;46.74
11041;BME280;5573;49.592;8.662;2023-05-03T09:08:02;100817.06;;;16.52;47.41
11041;BME280;5573;49.592;8.662;2023-05-03T09:10:31;100806.53;;;16.15;46.54
11041;BME280;5573;49.592;8.662;2023-05-03T09:13:00;100808.59;;;15.94;48.90
11041;BME280;5573;49.592;8.662;2023-05-03T09:15:30;100816.69;;;16.31;47.34
11041;BME280;5573;49.592;8.662;2023-05-03T09:18:09;100768.00;;;16.02;47.17
11041;BME280;5573;49.592;8.662;2023-05-03T09:20:39;100825.16;;;16.71;44.90
11041;BME280;5573;49.592;8.662;2023-05-03T09:23:08;100822.91;;;16.86;45.75
11041;BME280;5573;49.592;8.662;2023-05-03T09:25:40;100824.47;;;17.05;44.59
11041;BME280;5573;49.592;8.662;2023-05-03T09:28:08;100832.78;;;17.33;45.49
11041;BME280;5573;49.592;8.662;2023-05-03T09:30:38;100821.41;;;17.31;43.61
11041;BME280;5573;49.592;8.662;2023-05-03T09:33:05;100827.66;;;17.43;43.25
11041;BME280;5573;49.592;8.662;2023-05-03T09:35:33;100824.06;;;17.20;44.01
11041;BME280;5573;49.592;8.662;2023-05-03T09:38:01;100824.97;;;17.43;41.64
11041;BME280;5573;49.592;8.662;2023-05-03T09:40:29;100820.22;;;17.27;43.53
11041;BME280;5573;49.592;8.662;2023-05-03T09:43:04;100808.22;;;17.41;46.07
11041;BME280;5573;49.592;8.662;2023-05-03T09:45:31;100811.25;;;17.33;45.10
11041;BME280;5573;49.592;8.662;2023-05-03T09:48:02;100803.22;;;17.15;45.39
11041;BME280;5573;49.592;8.662;2023-05-03T09:50:31;100803.72;;;17.35;45.78
11041;BME280;5573;49.592;8.662;2023-05-03T09:53:03;100796.88;;;17.10;45.16
11041;BME280;5573;49.592;8.662;2023-05-03T09:55:32;100796.94;;;16.91;45.44
11041;BME280;5573;49.592;8.662;2023-05-03T09:58:00;100801.47;;;17.21;45.36
11041;BME280;5573;49.592;8.662;2023-05-03T10:00:35;100790.50;;;17.22;47.32
11041;BME280;5573;49.592;8.662;2023-05-03T10:03:07;100795.38;;;17.14;45.70
11041;BME280;5573;49.592;8.662;2023-05-03T10:05:42;100797.81;;;16.74;46.06
11041;BME280;5573;49.592;8.662;2023-05-03T10:08:15;100794.75;;;17.00;43.63
11041;BME280;5573;49.592;8.662;2023-05-03T10:10:44;100790.53;;;17.34;44.24
11041;BME280;5573;49.592;8.662;2023-05-03T10:13:16;100782.47;;;17.45;44.94
11041;BME280;5573;49.592;8.662;2023-05-03T10:15:45;100687.91;;;17.12;43.06
11041;BME280;5573;49.592;8.662;2023-05-03T10:18:18;100777.34;;;17.67;43.95
11041;BME280;5573;49.592;8.662;2023-05-03T10:20:49;100766.19;;;16.99;44.91
11041;BME280;5573;49.592;8.662;2023-05-03T10:23:20;100773.06;;;17.36;47.53
11041;BME280;5573;49.592;8.662;2023-05-03T10:26:12;100775.72;;;17.78;46.14
11041;BME280;5573;49.592;8.662;2023-05-03T10:28:40;100771.84;;;17.97;44.81
11041;BME280;5573;49.592;8.662;2023-05-03T10:31:43;100770.31;;;18.01;40.93
11041;BME280;5573;49.592;8.662;2023-05-03T10:34:23;100764.59;;;17.86;43.00
11041;BME280;5573;49.592;8.662;2023-05-03T10:36:51;100766.91;;;17.94;44.15
11041;BME280;5573;49.592;8.662;2023-05-03T10:39:20;100766.06;;;18.05;42.79
11041;BME280;5573;49.592;8.662;2023-05-03T10:41:56;100760.44;;;18.07;41.89
11041;BME280;5573;49.592;8.662;2023-05-03T10:44:26;100749.25;;;17.75;42.16
11041;BME280;5573;49.592;8.662;2023-05-03T10:46:54;100754.84;;;18.08;41.46
11041;BME280;5573;49.592;8.662;2023-05-03T10:49:23;100752.69;;;18.22;42.28
11041;BME280;5573;49.592;8.662;2023-05-03T10:51:52;100741.53;;;18.30;42.74
11041;BME280;5573;49.592;8.662;2023-05-03T10:54:22;100742.16;;;18.60;41.42
11041;BME280;5573;49.592;8.662;2023-05-03T10:56:51;100747.59;;;18.37;41.97
11041;BME280;5573;49.592;8.662;2023-05-03T10:59:20;100756.38;;;18.56;40.05
11041;BME280;5573;49.592;8.662;2023-05-03T11:01:49;100751.16;;;18.66;40.88
11041;BME280;5573;49.592;8.662;2023-05-03T11:04:31;100756.50;;;18.49;40.56
11041;BME280;5573;49.592;8.662;2023-05-03T11:07:00;100735.50;;;18.39;39.15
11041;BME280;5573;49.592;8.662;2023-05-03T11:09:32;100743.47;;;18.46;40.34
11041;BME280;5573;49.592;8.662;2023-05-03T11:12:03;100743.00;;;18.61;40.66
11041;BME280;5573;49.592;8.662;2023-05-03T11:14:31;100737.09;;;18.64;41.67
11041;BME280;5573;49.592;8.662;2023-05-03T11:16:59;100736.19;;;18.86;40.52
11041;BME280;5573;49.592;8.662;2023-05-03T11:19:28;100726.06;;;18.94;39.97
11041;BME280;5573;49.592;8.662;2023-05-03T11:21:56;100735.25;;;19.09;40.38
11041;BME280;5573;49.592;8.662;2023-05-03T11:24:24;100740.59;;;18.93;39.91
11041;BME280;5573;49.592;8.662;2023-05-03T11:26:52;100738.19;;;18.51;39.22
11041;BME280;5573;49.592;8.662;2023-05-03T11:29:19;100729.69;;;18.71;38.56
11041;BME280;5573;49.592;8.662;2023-05-03T11:31:47;100726.94;;;18.99;38.94
11041;BME280;5573;49.592;8.662;2023-05-03T11:34:17;100720.81;;;19.04;39.19
11041;BME280;5573;49.592;8.662;2023-05-03T11:36:46;100709.59;;;19.28;41.61
11041;BME280;5573;49.592;8.662;2023-05-03T11:39:15;100708.31;;;19.64;40.09
11041;BME280;5573;49.592;8.662;2023-05-03T11:42:00;100667.59;;;18.71;42.15
11041;BME280;5573;49.592;8.662;2023-05-03T11:44:28;100704.06;;;18.45;39.84
11041;BME280;5573;49.592;8.662;2023-05-03T11:46:56;100699.59;;;18.79;42.23
11041;BME280;5573;49.592;8.662;2023-05-03T11:49:25;100692.50;;;19.23;41.21
11041;BME280;5573;49.592;8.662;2023-05-03T11:51:54;100694.63;;;19.54;38.88
11041;BME280;5573;49.592;8.662;2023-05-03T11:54:22;100690.94;;;19.60;38.68
11041;BME280;5573;49.592;8.662;2023-05-03T11:56:54;100706.44;;;19.48;40.18
11041;BME280;5573;49.592;8.662;2023-05-03T11:59:33;100705.19;;;19.39;42.18
11041;BME280;5573;49.592;8.662;2023-05-03T12:02:01;100708.22;;;19.26;39.41
11041;BME280;5573;49.592;8.662;2023-05-03T12:04:29;100697.56;;;19.03;40.56
11041;BME280;5573;49.592;8.662;2023-05-03T12:06:59;100690.94;;;19.10;40.26
11041;BME280;5573;49.592;8.662;2023-05-03T12:09:30;100688.91;;;19.51;41.07
11041;BME280;5573;49.592;8.662;2023-05-03T12:11:58;100679.53;;;19.75;40.55
11041;BME280;5573;49.592;8.662;2023-05-03T12:14:29;100695.94;;;19.68;41.47
11041;BME280;5573;49.592;8.662;2023-05-03T12:17:32;100696.06;;;19.78;40.09
11041;BME280;5573;49.592;8.662;2023-05-03T12:20:21;100700.63;;;19.95;39.77
11041;BME280;5573;49.592;8.662;2023-05-03T12:22:55;100666.63;;;19.44;40.44
11041;BME280;5573;49.592;8.662;2023-05-03T12:25:25;100676.41;;;19.83;39.78
11041;BME280;5573;49.592;8.662;2023-05-03T12:27:59;100670.16;;;20.04;40.85
11041;BME280;5573;49.592;8.662;2023-05-03T12:30:46;100657.38;;;20.21;39.66
11041;BME280;5573;49.592;8.662;2023-05-03T12:33:14;100651.88;;;19.68;38.99
11041;BME280;5573;49.592;8.662;2023-05-03T12:35:47;100646.47;;;19.68;39.17
11041;BME280;5573;49.592;8.662;2023-05-03T12:38:21;100658.72;;;19.97;40.00
11041;BME280;5573;49.592;8.662;2023-05-03T12:40:50;100650.38;;;19.99;37.38
11041;BME280;5573;49.592;8.662;2023-05-03T12:43:20;100656.91;;;20.24;36.84
11041;BME280;5573;49.592;8.662;2023-05-03T12:45:48;100654.75;;;20.26;36.97
11041;BME280;5573;49.592;8.662;2023-05-03T12:48:35;100650.38;;;20.47;35.88
11041;BME280;5573;49.592;8.662;2023-05-03T12:51:04;100635.69;;;20.16;37.31
11041;BME280;5573;49.592;8.662;2023-05-03T12:53:46;100628.41;;;20.44;38.59
11041;BME280;5573;49.592;8.662;2023-05-03T12:56:20;100635.69;;;20.16;37.28
11041;BME280;5573;49.592;8.662;2023-05-03T12:58:50;100647.66;;;20.20;38.42
11041;BME280;5573;49.592;8.662;2023-05-03T13:01:39;100637.31;;;20.17;36.41
11041;BME280;5573;49.592;8.662;2023-05-03T13:04:09;100641.41;;;20.42;37.04
11041;BME280;5573;49.592;8.662;2023-05-03T13:06:40;100630.16;;;20.55;36.10
11041;BME280;5573;49.592;8.662;2023-05-03T13:09:12;100629.88;;;20.83;35.87
11041;BME280;5573;49.592;8.662;2023-05-03T13:11:47;100621.47;;;20.85;35.10
11041;BME280;5573;49.592;8.662;2023-05-03T13:14:16;100605.94;;;20.70;36.33
11041;BME280;5573;49.592;8.662;2023-05-03T13:16:44;100617.69;;;20.80;35.53
11041;BME280;5573;49.592;8.662;2023-05-03T13:19:12;100612.84;;;20.56;38.17
11041;BME280;5573;49.592;8.662;2023-05-03T13:21:40;100614.28;;;20.95;34.60